createdAt,value
2018-06-29T00:01:27.470Z,1.40
2018-06-29T00:03:57.176Z,1.70
2018-06-29T00:06:26.888Z,1.37
2018-06-29T00:08:58.282Z,1.90
2018-06-29T00:11:27.989Z,1.50
2018-06-29T00:13:57.754Z,1.70
2018-06-29T00:16:27.604Z,1.50
2018-06-29T00:18:57.361Z,1.67
2018-06-29T00:21:27.097Z,1.70
2018-06-29T00:23:57.014Z,1.70
2018-06-29T00:26:26.962Z,1.75
2018-06-29T00:28:57.374Z,1.92
2018-06-29T00:31:27.461Z,1.82
2018-06-29T00:33:57.223Z,1.40
2018-06-29T00:36:26.876Z,1.63
2018-06-29T00:38:56.873Z,1.95
2018-06-29T00:41:26.659Z,1.40
2018-06-29T00:43:56.465Z,1.52
2018-06-29T00:46:26.239Z,1.87
2018-06-29T00:48:56.696Z,1.52
2018-06-29T00:51:26.779Z,1.57
2018-06-29T00:53:56.570Z,1.75
2018-06-29T00:56:27.201Z,2.25
2018-06-29T00:58:56.861Z,1.50
2018-06-29T01:01:27.342Z,1.80
2018-06-29T01:03:56.997Z,1.95
2018-06-29T01:06:26.665Z,1.50
2018-06-29T01:08:57.309Z,1.72
2018-06-29T01:11:27.142Z,1.75
2018-06-29T01:13:57.738Z,1.50
2018-06-29T01:16:27.416Z,1.92
2018-06-29T01:18:57.049Z,1.75
2018-06-29T01:21:27.881Z,2.00
2018-06-29T01:23:58.295Z,1.80
2018-06-29T01:26:28.221Z,1.50
2018-06-29T01:28:58.148Z,1.80
2018-06-29T01:31:28.260Z,2.10
2018-06-29T01:33:59.391Z,2.20
2018-06-29T01:36:30.746Z,2.67
2018-06-29T01:39:00.429Z,2.52
2018-06-29T01:41:30.831Z,2.90
2018-06-29T01:44:00.395Z,2.30
2018-06-29T01:46:30.154Z,2.20
2018-06-29T01:48:59.992Z,2.35
2018-06-29T01:51:30.341Z,2.20
2018-06-29T01:54:01.758Z,2.27
2018-06-29T01:56:31.585Z,2.70
2018-06-29T01:59:01.718Z,2.35
2018-06-29T02:01:31.970Z,2.60
2018-06-29T02:04:02.053Z,2.40
2018-06-29T02:06:32.695Z,2.30
2018-06-29T02:09:02.392Z,2.25
2018-06-29T02:11:32.008Z,2.35
2018-06-29T02:14:01.743Z,2.40
2018-06-29T02:16:31.348Z,2.30
2018-06-29T02:25:51.196Z,2.20
2018-06-29T02:28:21.943Z,2.00
2018-06-29T02:30:51.723Z,2.55
2018-06-29T02:33:21.383Z,2.02
2018-06-29T02:35:51.465Z,2.42
2018-06-29T02:38:21.054Z,2.60
2018-06-29T02:40:50.851Z,2.40
2018-06-29T02:43:20.633Z,2.13
2018-06-29T02:45:51.527Z,2.50
2018-06-29T02:48:22.074Z,2.40
2018-06-29T02:50:51.696Z,2.57
2018-06-29T02:53:21.448Z,2.58
2018-06-29T02:55:51.844Z,2.25
2018-06-29T02:58:21.532Z,3.17
2018-06-29T03:00:52.029Z,2.70
2018-06-29T03:03:21.645Z,2.63
2018-06-29T03:05:51.274Z,2.30
2018-06-29T03:08:20.857Z,2.47
2018-06-29T03:10:50.612Z,2.37
2018-06-29T03:13:20.278Z,2.30
2018-06-29T03:15:50.147Z,2.75
2018-06-29T03:18:20.877Z,2.42
2018-06-29T03:20:50.478Z,2.45
2018-06-29T03:23:21.229Z,2.40
2018-06-29T03:25:51.464Z,2.47
2018-06-29T03:28:24.062Z,2.87
2018-06-29T03:30:54.799Z,2.40
2018-06-29T03:33:24.787Z,2.67
2018-06-29T03:35:54.470Z,2.57
2018-06-29T03:38:24.229Z,3.17
2018-06-29T03:40:53.900Z,2.52
2018-06-29T03:43:23.626Z,2.72
2018-06-29T03:45:53.297Z,2.37
2018-06-29T03:48:23.197Z,2.80
2018-06-29T03:50:52.783Z,2.80
2018-06-29T03:53:23.533Z,2.77
2018-06-29T03:55:53.936Z,2.73
2018-06-29T03:58:23.577Z,2.72
2018-06-29T04:00:53.213Z,2.83
2018-06-29T04:03:23.006Z,3.67
2018-06-29T04:05:53.112Z,3.00
2018-06-29T04:08:23.202Z,3.77
2018-06-29T04:10:52.775Z,3.17
2018-06-29T04:13:24.464Z,3.67
2018-06-29T04:15:54.120Z,3.55
2018-06-29T04:18:23.949Z,4.03
2018-06-29T04:20:53.664Z,4.53
2018-06-29T04:23:23.182Z,3.93
2018-06-29T04:25:52.975Z,3.60
2018-06-29T04:28:22.658Z,3.67
2018-06-29T04:30:52.433Z,4.03
2018-06-29T04:33:23.158Z,4.78
2018-06-29T04:35:52.943Z,4.17
2018-06-29T04:38:22.624Z,4.80
2018-06-29T04:40:53.081Z,6.08
2018-06-29T04:43:23.914Z,7.03
2018-06-29T04:45:53.708Z,8.83
2018-06-29T04:48:23.819Z,8.23
2018-06-29T04:50:53.505Z,8.15
2018-06-29T04:53:23.241Z,9.53
2018-06-29T04:55:53.661Z,7.60
2018-06-29T04:58:23.770Z,7.43
2018-06-29T05:00:54.528Z,7.17
2018-06-29T05:03:24.104Z,6.57
2018-06-29T05:05:54.033Z,6.60
2018-06-29T05:08:23.985Z,6.53
2018-06-29T05:10:53.642Z,6.00
2018-06-29T05:13:23.617Z,5.42
2018-06-29T05:15:53.697Z,5.70
2018-06-29T05:18:24.264Z,5.08
2018-06-29T05:20:55.713Z,6.23
2018-06-29T05:23:25.025Z,5.07
2018-06-29T05:25:55.236Z,5.47
2018-06-29T05:28:32.496Z,5.47
2018-06-29T05:31:02.966Z,4.97
2018-06-29T05:33:34.776Z,5.17
2018-06-29T05:36:05.669Z,5.53
2018-06-29T05:38:35.668Z,5.87
2018-06-29T05:41:05.615Z,5.90
2018-06-29T05:43:35.318Z,5.67
2018-06-29T05:46:06.973Z,5.65
2018-06-29T05:48:37.028Z,5.33
2018-06-29T05:51:07.590Z,5.72
2018-06-29T05:53:37.794Z,6.50
2018-06-29T05:56:08.668Z,5.70
2018-06-29T05:58:39.001Z,6.00
2018-06-29T06:01:11.777Z,5.12
2018-06-29T06:03:42.009Z,6.07
2018-06-29T06:06:12.044Z,5.92
2018-06-29T06:08:41.798Z,5.83
2018-06-29T06:11:11.652Z,5.47
2018-06-29T06:13:42.005Z,5.53
2018-06-29T06:16:12.161Z,6.33
2018-06-29T06:18:41.888Z,6.72
2018-06-29T06:21:12.592Z,7.00
2018-06-29T06:23:44.125Z,5.92
2018-06-29T06:26:13.903Z,6.20
2018-06-29T06:28:44.906Z,5.95
2018-06-29T06:31:14.641Z,6.15
2018-06-29T06:33:44.955Z,5.40
2018-06-29T06:36:14.892Z,5.28
2018-06-29T06:38:44.470Z,4.85
2018-06-29T06:41:14.206Z,5.22
2018-06-29T06:43:43.546Z,5.17
2018-06-29T06:46:13.235Z,5.08
2018-06-29T06:48:42.988Z,5.00
2018-06-29T06:51:12.754Z,5.10
2018-06-29T06:53:42.430Z,5.15
2018-06-29T06:56:12.756Z,4.72
2018-06-29T06:58:42.238Z,4.10
2018-06-29T07:01:12.017Z,4.28
2018-06-29T07:03:41.702Z,4.47
2018-06-29T07:06:13.068Z,4.20
2018-06-29T07:08:43.809Z,4.47
2018-06-29T07:11:13.659Z,4.53
2018-06-29T07:13:43.399Z,5.33
2018-06-29T07:16:13.314Z,3.37
2018-06-29T07:18:43.159Z,3.37
2018-06-29T07:21:12.915Z,3.87
2018-06-29T07:23:43.081Z,3.17
2018-06-29T07:26:13.825Z,3.65
2018-06-29T07:28:43.662Z,3.30
2018-06-29T07:31:13.463Z,3.40
2018-06-29T07:33:43.778Z,3.43
2018-06-29T07:36:13.588Z,4.33
2018-06-29T07:38:43.323Z,2.90
2018-06-29T07:41:13.545Z,3.00
2018-06-29T07:43:43.448Z,3.55
2018-06-29T07:46:13.214Z,3.27
2018-06-29T07:48:43.837Z,2.93
2018-06-29T07:51:13.867Z,2.95
2018-06-29T07:53:43.464Z,2.83
2018-06-29T07:56:13.258Z,3.80
2018-06-29T07:58:43.021Z,3.37
2018-06-29T08:01:14.562Z,3.35
2018-06-29T08:03:44.328Z,2.85
2018-06-29T08:06:14.344Z,2.37
2018-06-29T08:08:44.191Z,3.33
2018-06-29T08:11:13.828Z,3.92
2018-06-29T08:13:43.475Z,3.42
2018-06-29T08:16:13.100Z,2.98
2018-06-29T08:18:43.863Z,2.70
2018-06-29T08:21:14.117Z,2.83
2018-06-29T08:23:44.052Z,2.98
2018-06-29T08:26:25.976Z,2.65
2018-06-29T08:28:56.057Z,3.10
2018-06-29T08:31:25.727Z,3.50
2018-06-29T08:33:55.467Z,3.25
2018-06-29T08:36:25.188Z,2.45
2018-06-29T08:38:54.993Z,3.00
2018-06-29T08:41:25.444Z,2.50
2018-06-29T08:43:55.496Z,4.22
2018-06-29T08:46:25.303Z,3.10
2018-06-29T08:48:55.766Z,2.65
2018-06-29T08:51:26.048Z,2.47
2018-06-29T08:53:56.745Z,1.95
2018-06-29T08:56:26.482Z,2.20
2018-06-29T08:58:56.457Z,2.47
2018-06-29T09:01:26.165Z,2.08
2018-06-29T09:03:56.076Z,2.12
2018-06-29T09:06:25.681Z,2.45
2018-06-29T09:08:55.378Z,2.00
2018-06-29T09:11:24.999Z,2.10
2018-06-29T09:13:54.616Z,3.00
2018-06-29T09:16:24.361Z,2.10
2018-06-29T09:18:54.132Z,2.00
2018-06-29T09:21:23.787Z,2.62
2018-06-29T09:23:53.566Z,2.15
2018-06-29T09:26:23.496Z,2.65
2018-06-29T09:28:53.524Z,2.80
2018-06-29T09:31:23.996Z,2.30
2018-06-29T09:33:53.760Z,2.72
2018-06-29T09:36:23.602Z,2.20
2018-06-29T09:38:53.280Z,2.95
2018-06-29T09:41:26.344Z,2.55
2018-06-29T09:43:56.103Z,2.02
2018-06-29T09:46:26.093Z,2.52
2018-06-29T09:49:00.788Z,2.00
2018-06-29T09:51:34.583Z,2.60
2018-06-29T09:54:04.424Z,2.02
2018-06-29T09:56:34.679Z,2.17
2018-06-29T09:59:07.510Z,1.92
2018-06-29T10:01:37.311Z,1.93
2018-06-29T10:04:07.841Z,3.17
2018-06-29T10:06:38.575Z,3.13
2018-06-29T10:09:10.736Z,1.92
2018-06-29T10:11:40.953Z,2.00
2018-06-29T10:14:10.894Z,1.92
2018-06-29T10:16:42.087Z,1.70
2018-06-29T10:19:13.155Z,2.22
2018-06-29T10:21:43.799Z,1.67
2018-06-29T10:24:14.548Z,1.80
2018-06-29T10:26:44.283Z,1.70
2018-06-29T10:29:14.043Z,1.60
2018-06-29T10:31:43.940Z,1.52
2018-06-29T10:34:13.627Z,1.32
2018-06-29T10:36:44.339Z,1.77
2018-06-29T10:39:16.041Z,1.45
2018-06-29T10:41:45.816Z,1.80
2018-06-29T10:44:16.285Z,1.77
2018-06-29T10:46:46.001Z,1.50
2018-06-29T10:49:17.480Z,1.60
2018-06-29T10:51:47.626Z,1.80
2018-06-29T10:54:17.369Z,1.82
2018-06-29T10:56:47.992Z,1.65
2018-06-29T10:59:17.728Z,1.70
2018-06-29T11:01:47.731Z,1.70
2018-06-29T11:04:20.453Z,2.50
2018-06-29T11:06:50.219Z,2.03
2018-06-29T11:09:21.456Z,2.02
2018-06-29T11:11:51.996Z,1.52
2018-06-29T11:14:22.134Z,1.67
2018-06-29T11:16:51.924Z,2.03
2018-06-29T11:19:23.174Z,1.67
2018-06-29T11:21:54.931Z,1.72
2018-06-29T11:24:24.688Z,1.95
2018-06-29T11:26:54.544Z,2.35
2018-06-29T11:29:26.435Z,1.70
2018-06-29T11:31:56.196Z,1.60
2018-06-29T11:34:25.976Z,1.80
2018-06-29T11:36:55.699Z,1.65
2018-06-29T11:39:25.386Z,1.40
2018-06-29T11:41:56.014Z,2.47
2018-06-29T11:44:25.791Z,1.77
2018-06-29T11:46:56.341Z,1.75
2018-06-29T11:49:26.155Z,2.25
2018-06-29T11:51:55.886Z,1.67
2018-06-29T11:54:25.871Z,1.70
2018-06-29T11:56:55.564Z,1.32
2018-06-29T11:59:25.291Z,1.20
2018-06-29T12:01:54.912Z,1.32
2018-06-29T12:04:24.568Z,2.47
2018-06-29T12:06:55.116Z,1.32
2018-06-29T12:09:24.981Z,2.15
2018-06-29T12:11:55.281Z,1.70
2018-06-29T12:14:24.964Z,1.32
2018-06-29T12:16:54.644Z,1.47
2018-06-29T12:19:24.385Z,1.50
2018-06-29T12:21:54.120Z,1.60
2018-06-29T12:24:24.127Z,2.02
2018-06-29T12:26:54.431Z,1.67
2018-06-29T12:29:24.105Z,1.65
2018-06-29T12:31:54.794Z,1.77
2018-06-29T12:34:24.474Z,1.77
2018-06-29T12:36:55.727Z,1.72
2018-06-29T12:39:25.371Z,1.52
2018-06-29T12:41:55.156Z,3.10
2018-06-29T12:44:24.504Z,1.37
2018-06-29T12:46:54.362Z,2.10
2018-06-29T12:49:24.125Z,1.80
2018-06-29T12:51:54.816Z,2.23
2018-06-29T12:54:25.293Z,2.17
2018-06-29T12:56:55.019Z,1.70
2018-06-29T12:59:24.861Z,1.70
2018-06-29T13:01:55.021Z,1.55
2018-06-29T13:04:24.721Z,1.75
2018-06-29T13:06:54.331Z,1.90
2018-06-29T13:09:23.992Z,1.80
2018-06-29T13:11:53.822Z,1.90
2018-06-29T13:14:24.446Z,2.00
2018-06-29T13:16:54.191Z,1.95
2018-06-29T13:19:24.780Z,2.20
2018-06-29T13:21:54.441Z,2.30
2018-06-29T13:24:24.198Z,2.27
2018-06-29T13:26:55.214Z,1.87
2018-06-29T13:29:25.084Z,2.75
2018-06-29T13:31:54.513Z,2.80
2018-06-29T13:34:24.343Z,2.05
2018-06-29T13:36:54.284Z,2.73
2018-06-29T13:39:23.957Z,2.72
2018-06-29T13:41:53.693Z,2.60
2018-06-29T13:44:25.730Z,2.70
2018-06-29T13:46:55.534Z,2.52
2018-06-29T13:49:25.217Z,3.05
2018-06-29T13:51:54.889Z,3.13
2018-06-29T13:54:24.698Z,2.87
2018-06-29T13:56:54.332Z,3.45
2018-06-29T13:59:23.966Z,2.85
2018-06-29T14:01:53.879Z,2.60
2018-06-29T14:04:25.766Z,3.60
2018-06-29T14:06:55.420Z,2.90
2018-06-29T14:09:26.015Z,3.25
2018-06-29T14:11:55.665Z,2.45
2018-06-29T14:14:25.408Z,2.80
2018-06-29T14:16:55.361Z,3.35
2018-06-29T14:19:25.853Z,3.90
2018-06-29T14:21:56.011Z,2.87
2018-06-29T14:24:26.163Z,2.58
2018-06-29T14:26:55.938Z,4.55
2018-06-29T14:29:25.594Z,2.75
2018-06-29T14:31:55.265Z,3.02
2018-06-29T14:34:25.146Z,2.70
2018-06-29T14:36:55.660Z,2.47
2018-06-29T14:39:25.859Z,2.55
2018-06-29T14:41:55.522Z,4.53
2018-06-29T14:44:25.256Z,2.70
2018-06-29T14:46:55.067Z,3.02
2018-06-29T14:49:25.878Z,2.83
2018-06-29T14:51:55.736Z,2.27
2018-06-29T14:54:25.469Z,2.50
2018-06-29T14:56:55.179Z,2.58
2018-06-29T14:59:24.504Z,2.52
2018-06-29T15:01:54.429Z,2.30
2018-06-29T15:04:24.147Z,2.10
2018-06-29T15:06:54.585Z,2.57
2018-06-29T15:09:24.270Z,2.80
2018-06-29T15:11:54.069Z,2.30
2018-06-29T15:14:23.993Z,2.30
2018-06-29T15:16:53.705Z,3.17
2018-06-29T15:19:23.373Z,2.87
2018-06-29T15:21:53.266Z,2.80
2018-06-29T15:24:23.813Z,2.35
2018-06-29T15:26:53.566Z,3.20
2018-06-29T15:29:23.172Z,2.52
2018-06-29T15:31:53.714Z,2.40
2018-06-29T15:34:23.406Z,2.52
2018-06-29T15:36:53.120Z,2.47
2018-06-29T15:39:22.774Z,2.90
2018-06-29T15:41:53.360Z,2.90
2018-06-29T15:44:23.661Z,2.60
2018-06-29T15:46:56.609Z,2.70
2018-06-29T15:49:29.117Z,4.70
2018-06-29T15:51:59.919Z,2.45
2018-06-29T15:54:29.588Z,2.22
2018-06-29T15:57:01.345Z,4.28
2018-06-29T15:59:31.161Z,2.50
2018-06-29T16:02:01.011Z,3.00
2018-06-29T16:04:30.720Z,3.55
2018-06-29T16:07:00.437Z,2.70
2018-06-29T16:09:30.458Z,3.17
2018-06-29T16:12:01.383Z,2.50
2018-06-29T16:14:32.294Z,2.50
2018-06-29T16:17:03.434Z,2.22
2018-06-29T16:19:33.741Z,2.60
2018-06-29T16:22:03.547Z,2.83
2018-06-29T16:24:33.380Z,3.47
2018-06-29T16:27:03.088Z,2.72
2018-06-29T16:29:32.849Z,2.08
2018-06-29T16:32:02.553Z,2.62
2018-06-29T16:34:32.285Z,2.40
2018-06-29T16:37:01.959Z,3.00
2018-06-29T16:39:31.722Z,2.80
2018-06-29T16:42:01.876Z,2.47
2018-06-29T16:44:32.633Z,2.80
2018-06-29T16:47:05.081Z,2.65
2018-06-29T16:49:34.735Z,2.60
2018-06-29T16:52:04.436Z,2.77
2018-06-29T16:54:35.589Z,7.75
2018-06-29T16:57:06.263Z,29.75
2018-06-29T16:59:36.064Z,25.27
2018-06-29T17:02:06.422Z,27.58
2018-06-29T17:04:36.468Z,11.43
2018-06-29T17:07:06.449Z,13.72
2018-06-29T17:09:36.646Z,6.65
2018-06-29T17:12:06.876Z,6.53
2018-06-29T17:14:37.814Z,5.08
2018-06-29T17:17:07.534Z,3.65
2018-06-29T17:19:37.914Z,4.30
2018-06-29T17:22:08.481Z,3.90
2018-06-29T17:24:38.362Z,4.47
2018-06-29T17:27:11.673Z,3.50
2018-06-29T17:29:42.752Z,3.42
2018-06-29T17:32:13.322Z,4.25
2018-06-29T17:34:43.459Z,3.80
2018-06-29T17:37:15.831Z,3.55
2018-06-29T17:39:49.812Z,3.90
2018-06-29T17:42:23.671Z,4.15
2018-06-29T17:44:53.860Z,3.72
2018-06-29T17:47:24.249Z,3.20
2018-06-29T17:49:56.878Z,4.20
2018-06-29T17:52:28.041Z,4.08
2018-06-29T17:55:00.980Z,3.50
2018-06-29T17:57:36.065Z,3.42
2018-06-29T18:00:11.895Z,5.47
2018-06-29T18:02:44.520Z,4.33
2018-06-29T18:05:23.616Z,3.22
2018-06-29T18:07:56.511Z,3.37
2018-06-29T18:10:30.823Z,3.37
2018-06-29T18:13:04.359Z,3.37
2018-06-29T18:15:37.625Z,3.10
2018-06-29T18:18:09.629Z,3.50
2018-06-29T18:20:40.445Z,3.50
2018-06-29T18:23:10.897Z,3.33
2018-06-29T18:25:43.335Z,3.92
2018-06-29T18:28:14.420Z,4.22
2018-06-29T18:30:45.225Z,3.77
2018-06-29T18:33:17.296Z,3.72
2018-06-29T18:35:49.925Z,6.25
2018-06-29T18:38:20.091Z,3.58
2018-06-29T18:40:52.127Z,4.60
2018-06-29T18:43:23.278Z,3.52
2018-06-29T18:45:53.356Z,3.53
2018-06-29T18:48:24.913Z,3.52
2018-06-29T18:50:55.056Z,3.85
2018-06-29T18:53:25.133Z,3.05
2018-06-29T18:55:56.424Z,3.52
2018-06-29T18:58:28.052Z,3.15
2018-06-29T19:00:58.544Z,5.00
2018-06-29T19:03:28.177Z,3.45
2018-06-29T19:05:58.827Z,3.52
2018-06-29T19:08:29.228Z,4.35
2018-06-29T19:10:59.347Z,3.27
2018-06-29T19:13:30.407Z,5.08
2018-06-29T19:16:00.545Z,4.03
2018-06-29T19:18:30.611Z,3.92
2018-06-29T19:21:01.553Z,3.00
2018-06-29T19:23:32.072Z,3.95
2018-06-29T19:26:03.209Z,3.50
2018-06-29T19:28:34.880Z,3.45
2018-06-29T19:31:05.114Z,3.55
2018-06-29T19:33:35.623Z,4.28
2018-06-29T19:36:06.098Z,3.90
2018-06-29T19:38:36.174Z,3.62
2018-06-29T19:41:08.669Z,2.80
2018-06-29T19:43:38.829Z,3.62
2018-06-29T19:46:09.671Z,3.80
2018-06-29T19:48:40.761Z,3.75
2018-06-29T19:51:10.973Z,4.33
2018-06-29T19:53:43.042Z,3.45
2018-06-29T19:56:13.898Z,3.40
2018-06-29T19:58:43.757Z,4.30
2018-06-29T20:01:13.458Z,3.25
2018-06-29T20:03:43.316Z,3.72
2018-06-29T20:06:13.499Z,3.27
2018-06-29T20:08:43.547Z,3.20
2018-06-29T20:11:13.551Z,5.58
2018-06-29T20:13:43.515Z,3.52
2018-06-29T20:16:15.336Z,20.55
2018-06-29T20:18:46.977Z,5.96
2018-06-29T20:21:17.417Z,6.15
2018-06-29T20:23:48.226Z,4.17
2018-06-29T20:26:18.054Z,4.45
2018-06-29T20:28:47.952Z,4.00
2018-06-29T20:31:18.991Z,3.77
2018-06-29T20:33:50.843Z,3.65
2018-06-29T20:36:23.425Z,5.67
2018-06-29T20:38:53.956Z,5.58
2018-06-29T20:41:24.289Z,4.22
2018-06-29T20:43:54.188Z,5.20
2018-06-29T20:46:25.626Z,3.25
2018-06-29T20:48:55.695Z,4.97
2018-06-29T20:51:26.940Z,5.03
2018-06-29T20:53:58.729Z,3.35
2018-06-29T20:56:28.453Z,3.15
2018-06-29T20:58:59.518Z,4.85
2018-06-29T21:01:29.247Z,3.37
2018-06-29T21:03:59.039Z,3.30
2018-06-29T21:06:33.312Z,3.37
2018-06-29T21:09:05.827Z,4.60
2018-06-29T21:11:36.625Z,3.87
2018-06-29T21:14:09.690Z,4.33
2018-06-29T21:16:40.165Z,3.02
2018-06-29T21:19:12.043Z,3.20
2018-06-29T21:21:42.982Z,2.90
2018-06-29T21:24:15.788Z,3.20
2018-06-29T21:26:46.366Z,2.95
2018-06-29T21:29:20.045Z,3.10
2018-06-29T21:31:51.117Z,3.02
2018-06-29T21:34:21.121Z,3.30
2018-06-29T21:36:53.656Z,2.70
2018-06-29T21:39:24.477Z,3.00
2018-06-29T21:41:56.734Z,3.98
2018-06-29T21:44:27.391Z,2.52
2018-06-29T21:46:59.112Z,2.95
2018-06-29T21:49:29.817Z,2.75
2018-06-29T21:52:00.207Z,2.67
2018-06-29T21:54:34.567Z,2.90
2018-06-29T21:57:06.698Z,2.87
2018-06-29T21:59:38.590Z,2.85
2018-06-29T22:02:10.166Z,3.45
2018-06-29T22:04:40.316Z,2.70
2018-06-29T22:07:12.061Z,2.70
2018-06-29T22:09:44.175Z,2.45
2018-06-29T22:12:22.148Z,2.75
2018-06-29T22:14:52.284Z,2.98
2018-06-29T22:17:22.214Z,2.83
2018-06-29T22:19:52.654Z,3.60
2018-06-29T22:22:24.389Z,2.50
2018-06-29T22:24:56.081Z,3.80
2018-06-29T22:27:29.289Z,3.20
2018-06-29T22:29:59.520Z,2.40
2018-06-29T22:32:32.637Z,3.10
2018-06-29T22:35:03.123Z,2.50
2018-06-29T22:37:38.158Z,2.60
2018-06-29T22:40:09.328Z,2.80
2018-06-29T22:42:39.816Z,3.55
2018-06-29T22:45:09.984Z,2.83
2018-06-29T22:47:40.533Z,2.60
2018-06-29T22:50:11.904Z,2.50
2018-06-29T22:52:44.180Z,3.25
2018-06-29T22:55:15.597Z,2.72
2018-06-29T22:57:45.527Z,2.60
2018-06-29T23:00:17.308Z,3.50
2018-06-29T23:02:48.364Z,3.42
2018-06-29T23:05:19.652Z,2.70
2018-06-29T23:07:49.680Z,2.67
2018-06-29T23:10:26.082Z,2.70
2018-06-29T23:12:56.740Z,2.70
2018-06-29T23:15:27.302Z,2.77
2018-06-29T23:17:58.513Z,2.87
2018-06-29T23:20:29.861Z,2.72
2018-06-29T23:23:04.356Z,3.05
2018-06-29T23:25:35.240Z,2.70
2018-06-29T23:28:06.798Z,4.45
2018-06-29T23:30:37.504Z,3.22
2018-06-29T23:33:08.884Z,2.58
2018-06-29T23:35:38.944Z,2.75
2018-06-29T23:38:11.551Z,2.50
2018-06-29T23:40:44.245Z,3.02
2018-06-29T23:43:15.961Z,2.35
2018-06-29T23:45:48.896Z,2.92
2018-06-29T23:48:23.467Z,2.35
2018-06-29T23:50:54.202Z,2.58
2018-06-29T23:53:24.331Z,2.12
2018-06-29T23:55:56.522Z,2.67
2018-06-29T23:58:26.972Z,3.15
